createdAt,value
2018-06-20T00:00:34.307Z,21.23
2018-06-20T00:01:34.460Z,21.22
2018-06-20T00:02:34.286Z,21.22
2018-06-20T00:03:34.279Z,21.22
2018-06-20T00:04:34.295Z,21.23
2018-06-20T00:05:34.286Z,21.2
2018-06-20T00:06:34.301Z,21.19
2018-06-20T00:07:34.279Z,21.2
2018-06-20T00:08:34.283Z,21.2
2018-06-20T00:09:34.291Z,21.19
2018-06-20T00:10:34.315Z,21.2
2018-06-20T00:11:34.275Z,21.17
2018-06-20T00:12:34.271Z,21.16
2018-06-20T00:13:34.273Z,21.16
2018-06-20T00:14:34.275Z,21.16
2018-06-20T00:15:34.282Z,21.13
2018-06-20T00:16:34.280Z,21.12
2018-06-20T00:17:34.295Z,21.1
2018-06-20T00:18:34.304Z,21.12
2018-06-20T00:19:34.293Z,21.07
2018-06-20T00:20:34.299Z,21.02
2018-06-20T00:21:34.323Z,21.01
2018-06-20T00:22:34.314Z,20.99
2018-06-20T00:23:34.329Z,20.89
2018-06-20T00:24:34.280Z,20.54
2018-06-20T00:25:34.293Z,20.46
2018-06-20T00:26:34.351Z,20.52
2018-06-20T00:27:34.351Z,20.52
2018-06-20T00:28:34.319Z,20.54
2018-06-20T00:29:34.282Z,20.55
2018-06-20T00:30:34.305Z,20.55
2018-06-20T00:31:34.283Z,20.52
2018-06-20T00:32:34.456Z,20.51
2018-06-20T00:33:34.363Z,20.51
2018-06-20T00:34:34.424Z,20.48
2018-06-20T00:35:34.324Z,20.5
2018-06-20T00:36:34.352Z,20.48
2018-06-20T00:37:34.316Z,20.47
2018-06-20T00:38:34.325Z,20.47
2018-06-20T00:39:34.307Z,20.47
2018-06-20T00:40:34.318Z,20.47
2018-06-20T00:41:34.310Z,20.46
2018-06-20T00:42:34.351Z,20.47
2018-06-20T00:43:34.290Z,20.47
2018-06-20T00:44:34.281Z,20.48
2018-06-20T00:45:34.445Z,20.5
2018-06-20T00:46:34.289Z,20.48
2018-06-20T00:47:34.313Z,20.5
2018-06-20T00:48:34.320Z,20.51
2018-06-20T00:49:34.323Z,20.51
2018-06-20T00:50:34.467Z,20.48
2018-06-20T00:51:34.305Z,20.43
2018-06-20T00:52:34.315Z,20.33
2018-06-20T00:53:34.310Z,20.37
2018-06-20T00:54:34.295Z,20.4
2018-06-20T00:55:34.372Z,20.4
2018-06-20T00:56:34.338Z,20.4
2018-06-20T00:57:34.341Z,20.44
2018-06-20T00:58:34.303Z,20.4
2018-06-20T00:59:34.310Z,20.37
2018-06-20T01:00:34.308Z,20.37
2018-06-20T01:01:34.327Z,20.37
2018-06-20T01:02:34.311Z,20.37
2018-06-20T01:03:34.315Z,20.36
2018-06-20T01:04:34.309Z,20.36
2018-06-20T01:05:34.362Z,20.29
2018-06-20T01:06:34.321Z,20.27
2018-06-20T01:07:34.304Z,20.27
2018-06-20T01:08:34.477Z,20.26
2018-06-20T01:09:34.360Z,20.24
2018-06-20T01:10:34.310Z,20.24
2018-06-20T01:11:34.444Z,20.22
2018-06-20T01:12:34.326Z,20.17
2018-06-20T01:13:34.324Z,20.22
2018-06-20T01:14:34.349Z,20.22
2018-06-20T01:15:34.305Z,20.23
2018-06-20T01:16:34.308Z,20.22
2018-06-20T01:17:34.314Z,20.22
2018-06-20T01:18:34.340Z,20.22
2018-06-20T01:19:34.324Z,20.22
2018-06-20T01:20:34.339Z,20.22
2018-06-20T01:21:34.388Z,20.2
2018-06-20T01:22:34.345Z,20.16
2018-06-20T01:23:34.332Z,20.17
2018-06-20T01:24:34.359Z,20.19
2018-06-20T01:25:34.321Z,20.16
2018-06-20T01:26:34.342Z,20.17
2018-06-20T01:27:34.361Z,20.16
2018-06-20T01:28:34.324Z,20.16
2018-06-20T01:29:34.376Z,20.16
2018-06-20T01:30:34.355Z,20.15
2018-06-20T01:31:34.326Z,20.17
2018-06-20T01:32:34.336Z,20.15
2018-06-20T01:33:34.352Z,20.17
2018-06-20T01:34:34.317Z,20.16
2018-06-20T01:35:34.334Z,20.16
2018-06-20T01:36:34.441Z,20.13
2018-06-20T01:37:34.480Z,20.11
2018-06-20T01:38:34.384Z,20.13
2018-06-20T01:39:35.079Z,20.13
2018-06-20T01:40:34.331Z,20.13
2018-06-20T01:41:34.454Z,20.16
2018-06-20T01:42:34.337Z,20.12
2018-06-20T01:43:34.352Z,20.12
2018-06-20T01:44:34.436Z,20.13
2018-06-20T01:45:34.403Z,20.13
2018-06-20T01:46:34.346Z,20.12
2018-06-20T01:47:34.333Z,20.12
2018-06-20T01:48:34.352Z,20.12
2018-06-20T01:49:34.406Z,20.05
2018-06-20T01:50:34.368Z,20.04
2018-06-20T01:51:34.361Z,20.04
2018-06-20T01:52:34.337Z,20.02
2018-06-20T01:53:34.338Z,20.01
2018-06-20T01:54:34.461Z,19.96
2018-06-20T01:55:34.722Z,19.96
2018-06-20T01:56:34.410Z,19.91
2018-06-20T01:57:34.373Z,19.92
2018-06-20T01:58:34.343Z,19.92
2018-06-20T01:59:34.527Z,19.91
2018-06-20T02:00:34.366Z,19.89
2018-06-20T02:01:34.360Z,19.88
2018-06-20T02:02:34.353Z,19.88
2018-06-20T02:03:34.378Z,19.72
2018-06-20T02:04:34.362Z,19.5
2018-06-20T02:05:34.354Z,19.42
2018-06-20T02:06:34.451Z,19.39
2018-06-20T02:07:34.386Z,19.36
2018-06-20T02:08:34.375Z,19.39
2018-06-20T02:09:34.394Z,19.37
2018-06-20T02:10:34.366Z,19.3
2018-06-20T02:11:34.431Z,19.26
2018-06-20T02:12:34.555Z,19.3
2018-06-20T02:13:34.368Z,19.32
2018-06-20T02:14:34.463Z,19.29
2018-06-20T02:15:34.367Z,19.32
2018-06-20T02:16:34.353Z,19.33
2018-06-20T02:17:34.361Z,19.3
2018-06-20T02:18:34.395Z,19.29
2018-06-20T02:19:34.363Z,19.29
2018-06-20T02:20:34.384Z,19.26
2018-06-20T02:21:34.361Z,19.29
2018-06-20T02:22:34.552Z,19.29
2018-06-20T02:23:34.386Z,19.32
2018-06-20T02:24:34.382Z,19.3
2018-06-20T02:25:34.362Z,19.27
2018-06-20T02:26:34.364Z,19.25
2018-06-20T02:27:34.372Z,19.25
2018-06-20T02:28:34.363Z,19.21
2018-06-20T02:29:34.378Z,19.16
2018-06-20T02:30:34.398Z,19.06
2018-06-20T02:31:34.360Z,19.08
2018-06-20T02:32:34.417Z,19.13
2018-06-20T02:33:34.362Z,19.17
2018-06-20T02:34:34.378Z,19.12
2018-06-20T02:35:34.387Z,19.12
2018-06-20T02:36:34.495Z,19.1
2018-06-20T02:37:34.420Z,19.1
2018-06-20T02:38:34.394Z,19.09
2018-06-20T02:39:34.383Z,18.98
2018-06-20T02:40:34.407Z,18.94
2018-06-20T02:41:34.398Z,18.91
2018-06-20T02:42:34.394Z,18.91
2018-06-20T02:43:34.514Z,18.88
2018-06-20T02:44:34.432Z,18.87
2018-06-20T02:45:34.436Z,18.87
2018-06-20T02:46:34.404Z,18.87
2018-06-20T02:47:34.381Z,18.88
2018-06-20T02:48:34.386Z,18.87
2018-06-20T02:49:34.529Z,18.91
2018-06-20T02:50:34.405Z,18.89
2018-06-20T02:51:34.700Z,18.91
2018-06-20T02:52:34.733Z,18.92
2018-06-20T02:53:34.406Z,18.91
2018-06-20T02:54:34.403Z,18.89
2018-06-20T02:55:34.469Z,18.91
2018-06-20T02:56:34.396Z,18.89
2018-06-20T02:57:34.404Z,18.91
2018-06-20T02:58:34.411Z,18.85
2018-06-20T02:59:34.435Z,18.85
2018-06-20T03:00:34.399Z,18.87
2018-06-20T03:01:34.387Z,18.84
2018-06-20T03:02:34.749Z,18.85
2018-06-20T03:03:34.393Z,18.87
2018-06-20T03:04:34.392Z,18.88
2018-06-20T03:05:34.396Z,18.87
2018-06-20T03:06:34.446Z,18.89
2018-06-20T03:07:34.585Z,18.91
2018-06-20T03:08:34.398Z,18.85
2018-06-20T03:09:34.412Z,18.84
2018-06-20T03:10:34.432Z,18.84
2018-06-20T03:11:34.447Z,18.84
2018-06-20T03:12:34.445Z,18.87
2018-06-20T03:13:34.395Z,18.84
2018-06-20T03:14:34.405Z,18.81
2018-06-20T03:15:34.391Z,18.82
2018-06-20T03:16:34.399Z,18.81
2018-06-20T03:17:34.465Z,18.8
2018-06-20T03:18:34.435Z,18.8
2018-06-20T03:19:34.401Z,18.78
2018-06-20T03:20:34.404Z,18.81
2018-06-20T03:21:34.415Z,18.8
2018-06-20T03:22:34.418Z,18.81
2018-06-20T03:23:34.417Z,18.82
2018-06-20T03:24:34.423Z,18.8
2018-06-20T03:25:34.567Z,18.81
2018-06-20T03:26:34.436Z,18.77
2018-06-20T03:27:34.446Z,18.72
2018-06-20T03:28:34.405Z,18.7
2018-06-20T03:29:34.450Z,18.6
2018-06-20T03:30:34.533Z,18.54
2018-06-20T03:31:34.406Z,18.52
2018-06-20T03:32:34.425Z,18.54
2018-06-20T03:33:34.414Z,18.53
2018-06-20T03:34:34.398Z,18.52
2018-06-20T03:35:34.406Z,18.5
2018-06-20T03:36:34.407Z,18.5
2018-06-20T03:37:34.421Z,18.52
2018-06-20T03:38:34.428Z,18.53
2018-06-20T03:39:34.409Z,18.49
2018-06-20T03:40:34.485Z,18.5
2018-06-20T03:41:34.425Z,18.5
2018-06-20T03:42:34.421Z,18.49
2018-06-20T03:43:34.422Z,18.5
2018-06-20T03:44:34.428Z,18.42
2018-06-20T03:45:34.426Z,18.29
2018-06-20T03:46:34.413Z,18.33
2018-06-20T03:47:34.433Z,18.35
2018-06-20T03:48:34.461Z,18.37
2018-06-20T03:49:34.446Z,18.35
2018-06-20T03:50:34.439Z,18.35
2018-06-20T03:51:34.405Z,18.36
2018-06-20T03:52:34.411Z,18.35
2018-06-20T03:53:34.455Z,18.36
2018-06-20T03:54:34.413Z,18.39
2018-06-20T03:55:34.610Z,18.42
2018-06-20T03:56:34.481Z,18.43
2018-06-20T03:57:34.443Z,18.46
2018-06-20T03:58:34.432Z,18.47
2018-06-20T03:59:34.430Z,18.47
2018-06-20T04:00:34.436Z,18.52
2018-06-20T04:01:34.433Z,18.54
2018-06-20T04:02:34.468Z,18.59
2018-06-20T04:03:34.431Z,18.6
2018-06-20T04:04:34.431Z,18.66
2018-06-20T04:05:34.438Z,18.66
2018-06-20T04:06:34.447Z,18.68
2018-06-20T04:07:34.454Z,18.67
2018-06-20T04:08:34.573Z,18.72
2018-06-20T04:09:34.462Z,18.7
2018-06-20T04:10:34.435Z,18.72
2018-06-20T04:11:34.476Z,18.72
2018-06-20T04:12:34.448Z,18.74
2018-06-20T04:13:34.453Z,18.77
2018-06-20T04:14:34.471Z,18.75
2018-06-20T04:15:34.436Z,18.78
2018-06-20T04:16:34.453Z,18.81
2018-06-20T04:17:34.426Z,18.8
2018-06-20T04:18:34.450Z,18.8
2018-06-20T04:19:34.456Z,18.8
2018-06-20T04:20:34.435Z,18.8
2018-06-20T04:21:34.493Z,18.81
2018-06-20T04:22:34.483Z,18.82
2018-06-20T04:23:34.470Z,18.84
2018-06-20T04:24:34.469Z,18.82
2018-06-20T04:25:34.471Z,18.88
2018-06-20T04:26:34.484Z,18.85
2018-06-20T04:27:34.456Z,18.89
2018-06-20T04:28:34.486Z,18.88
2018-06-20T04:29:34.472Z,18.89
2018-06-20T04:30:34.808Z,18.94
2018-06-20T04:31:34.487Z,18.94
2018-06-20T04:32:34.507Z,18.94
2018-06-20T04:33:34.487Z,18.98
2018-06-20T04:34:34.636Z,18.99
2018-06-20T04:35:34.519Z,18.99
2018-06-20T04:36:34.454Z,19.01
2018-06-20T04:37:34.632Z,19.02
2018-06-20T04:38:34.484Z,19.01
2018-06-20T04:39:34.476Z,19.03
2018-06-20T04:40:34.688Z,19.05
2018-06-20T04:41:34.537Z,19.06
2018-06-20T04:42:34.457Z,19.08
2018-06-20T04:43:34.491Z,19.09
2018-06-20T04:44:34.538Z,19.12
2018-06-20T04:45:34.505Z,19.12
2018-06-20T04:46:34.452Z,19.13
2018-06-20T04:47:34.459Z,19.13
2018-06-20T04:48:34.483Z,19.15
2018-06-20T04:49:34.469Z,19.17
2018-06-20T04:50:34.478Z,19.17
2018-06-20T04:51:34.455Z,19.19
2018-06-20T04:52:34.485Z,19.21
2018-06-20T04:53:34.449Z,19.23
2018-06-20T04:54:34.480Z,19.22
2018-06-20T04:55:34.670Z,19.23
2018-06-20T04:56:34.458Z,19.25
2018-06-20T04:57:34.497Z,19.22
2018-06-20T04:58:34.467Z,19.29
2018-06-20T04:59:34.514Z,19.27
2018-06-20T05:00:34.473Z,19.29
2018-06-20T05:01:34.525Z,19.29
2018-06-20T05:02:34.489Z,19.32
2018-06-20T05:03:34.506Z,19.3
2018-06-20T05:04:34.503Z,19.33
2018-06-20T05:05:34.556Z,19.33
2018-06-20T05:06:34.621Z,19.33
2018-06-20T05:07:34.486Z,19.32
2018-06-20T05:08:34.491Z,19.32
2018-06-20T05:09:34.545Z,19.34
2018-06-20T05:10:34.475Z,19.39
2018-06-20T05:11:34.537Z,19.42
2018-06-20T05:12:34.509Z,19.42
2018-06-20T05:13:34.549Z,19.43
2018-06-20T05:14:34.716Z,19.44
2018-06-20T05:15:34.481Z,19.46
2018-06-20T05:16:34.567Z,19.5
2018-06-20T05:17:34.504Z,19.5
2018-06-20T05:18:34.483Z,19.5
2018-06-20T05:19:34.500Z,19.54
2018-06-20T05:20:34.508Z,19.54
2018-06-20T05:21:34.515Z,19.58
2018-06-20T05:22:34.719Z,19.58
2018-06-20T05:23:34.536Z,19.6
2018-06-20T05:24:34.681Z,19.6
2018-06-20T05:25:34.486Z,19.61
2018-06-20T05:26:34.768Z,19.67
2018-06-20T05:27:34.790Z,19.67
2018-06-20T05:28:34.665Z,19.67
2018-06-20T05:29:34.600Z,19.71
2018-06-20T05:30:34.634Z,19.74
2018-06-20T05:31:34.659Z,19.72
2018-06-20T05:32:34.629Z,19.77
2018-06-20T05:33:34.800Z,19.79
2018-06-20T05:34:34.655Z,19.79
2018-06-20T05:35:34.641Z,19.82
2018-06-20T05:36:34.705Z,19.84
2018-06-20T05:37:34.650Z,19.85
2018-06-20T05:38:34.677Z,19.89
2018-06-20T05:39:34.700Z,19.91
2018-06-20T05:40:34.745Z,19.91
2018-06-20T05:41:34.657Z,19.93
2018-06-20T05:42:34.704Z,19.95
2018-06-20T05:43:34.738Z,19.93
2018-06-20T05:44:34.721Z,19.98
2018-06-20T05:45:34.728Z,19.99
2018-06-20T05:46:34.658Z,20.01
2018-06-20T05:47:34.751Z,20.04
2018-06-20T05:48:34.667Z,20.06
2018-06-20T05:49:34.748Z,20.09
2018-06-20T05:50:34.759Z,20.06
2018-06-20T05:51:34.759Z,20.06
2018-06-20T05:52:34.666Z,20.06
2018-06-20T05:53:34.742Z,20.11
2018-06-20T05:54:34.640Z,20.15
2018-06-20T05:55:34.656Z,20.13
2018-06-20T05:56:34.721Z,20.15
2018-06-20T05:57:34.677Z,20.19
2018-06-20T05:58:34.655Z,20.2
2018-06-20T05:59:34.710Z,20.19
2018-06-20T06:00:34.509Z,20.2
2018-06-20T06:01:34.758Z,20.2
2018-06-20T06:02:34.518Z,20.17
2018-06-20T06:03:34.840Z,20.24
2018-06-20T06:04:34.544Z,20.23
2018-06-20T06:05:34.552Z,20.29
2018-06-20T06:06:34.506Z,20.3
2018-06-20T06:07:34.530Z,20.32
2018-06-20T06:08:34.875Z,20.34
2018-06-20T06:09:34.511Z,20.36
2018-06-20T06:10:34.575Z,20.41
2018-06-20T06:11:34.545Z,20.46
2018-06-20T06:12:34.543Z,20.48
2018-06-20T06:13:34.766Z,20.5
2018-06-20T06:14:34.536Z,20.5
2018-06-20T06:15:34.554Z,20.5
2018-06-20T06:16:34.543Z,20.52
2018-06-20T06:17:34.809Z,20.57
2018-06-20T06:18:34.544Z,20.6
2018-06-20T06:19:34.580Z,20.65
2018-06-20T06:20:34.550Z,20.65
2018-06-20T06:21:34.564Z,20.67
2018-06-20T06:22:34.820Z,20.7
2018-06-20T06:23:34.911Z,20.72
2018-06-20T06:24:34.543Z,20.7
2018-06-20T06:25:34.532Z,20.7
2018-06-20T06:26:34.546Z,20.68
2018-06-20T06:27:34.562Z,20.71
2018-06-20T06:28:34.880Z,20.71
2018-06-20T06:29:34.608Z,20.74
2018-06-20T06:30:34.769Z,20.79
2018-06-20T06:31:34.537Z,20.82
2018-06-20T06:32:34.568Z,20.87
2018-06-20T06:33:34.608Z,20.87
2018-06-20T06:34:34.564Z,20.92
2018-06-20T06:35:34.553Z,20.96
2018-06-20T06:36:34.558Z,21.01
2018-06-20T06:37:34.649Z,21.05
2018-06-20T06:38:34.554Z,21.03
2018-06-20T06:39:34.567Z,21.03
2018-06-20T06:40:34.587Z,21.07
2018-06-20T06:41:34.556Z,21.13
2018-06-20T06:42:34.527Z,21.17
2018-06-20T06:43:34.537Z,21.17
2018-06-20T06:44:34.783Z,21.16
2018-06-20T06:45:35.162Z,21.17
2018-06-20T06:46:34.565Z,21.22
2018-06-20T06:47:34.577Z,21.27
2018-06-20T06:48:34.586Z,21.29
2018-06-20T06:49:34.652Z,21.36
2018-06-20T06:50:34.560Z,21.32
2018-06-20T06:51:34.580Z,21.39
2018-06-20T06:52:34.589Z,21.41
2018-06-20T06:53:34.541Z,21.49
2018-06-20T06:54:34.546Z,21.46
2018-06-20T06:55:34.546Z,21.54
2018-06-20T06:56:34.633Z,21.57
2018-06-20T06:57:34.555Z,21.6
2018-06-20T06:58:34.607Z,21.6
2018-06-20T06:59:34.538Z,21.61
2018-06-20T07:00:34.589Z,21.68
2018-06-20T07:01:34.772Z,21.72
2018-06-20T07:02:34.740Z,21.74
2018-06-20T07:03:34.576Z,21.78
2018-06-20T07:04:34.560Z,21.81
2018-06-20T07:05:34.619Z,21.84
2018-06-20T07:06:34.553Z,21.89
2018-06-20T07:07:34.562Z,21.95
2018-06-20T07:08:34.595Z,21.99
2018-06-20T07:09:34.571Z,22.01
2018-06-20T07:10:34.556Z,22.05
2018-06-20T07:11:34.578Z,22.13
2018-06-20T07:12:34.552Z,22.13
2018-06-20T07:13:34.577Z,22.17
2018-06-20T07:14:34.595Z,22.19
2018-06-20T07:15:35.057Z,22.2
2018-06-20T07:16:34.632Z,22.22
2018-06-20T07:17:34.625Z,22.29
2018-06-20T07:18:34.611Z,22.31
2018-06-20T07:19:34.586Z,22.34
2018-06-20T07:20:34.593Z,22.4
2018-06-20T07:21:34.602Z,22.43
2018-06-20T07:22:34.570Z,22.44
2018-06-20T07:23:34.641Z,22.44
2018-06-20T07:24:34.810Z,22.48
2018-06-20T07:25:34.575Z,22.5
2018-06-20T07:26:34.603Z,22.51
2018-06-20T07:27:34.607Z,22.6
2018-06-20T07:28:34.812Z,22.6
2018-06-20T07:29:34.611Z,22.63
2018-06-20T07:30:34.572Z,22.63
2018-06-20T07:31:34.578Z,22.65
2018-06-20T07:32:34.661Z,22.68
2018-06-20T07:33:34.592Z,22.72
2018-06-20T07:34:35.298Z,22.81
2018-06-20T07:35:35.813Z,22.82
2018-06-20T07:36:34.595Z,22.85
2018-06-20T07:37:34.635Z,22.88
2018-06-20T07:38:34.644Z,22.95
2018-06-20T07:39:35.000Z,23.03
2018-06-20T07:40:34.631Z,23.02
2018-06-20T07:41:34.647Z,23.01
2018-06-20T07:42:34.654Z,23.02
2018-06-20T07:43:34.594Z,23.03
2018-06-20T07:44:34.629Z,23.06
2018-06-20T07:45:34.689Z,23.15
2018-06-20T07:46:34.570Z,23.18
2018-06-20T07:47:34.601Z,23.2
2018-06-20T07:48:34.611Z,23.29
2018-06-20T07:49:34.775Z,23.3
2018-06-20T07:50:34.656Z,23.3
2018-06-20T07:51:34.734Z,23.37
2018-06-20T07:52:34.844Z,23.36
2018-06-20T07:53:34.700Z,23.34
2018-06-20T07:54:34.820Z,23.27
2018-06-20T07:55:34.754Z,23.33
2018-06-20T07:56:34.737Z,23.43
2018-06-20T07:57:34.714Z,23.4
2018-06-20T07:58:34.735Z,23.39
2018-06-20T07:59:34.679Z,23.46
2018-06-20T08:00:34.941Z,23.46
2018-06-20T08:01:34.735Z,23.47
2018-06-20T08:02:34.689Z,23.5
2018-06-20T08:03:34.872Z,23.56
2018-06-20T08:04:34.714Z,23.57
2018-06-20T08:05:34.665Z,23.6
2018-06-20T08:06:34.697Z,23.64
2018-06-20T08:07:34.698Z,23.62
2018-06-20T08:08:34.700Z,23.62
2018-06-20T08:09:34.725Z,23.67
2018-06-20T08:10:34.725Z,23.69
2018-06-20T08:11:34.739Z,23.75
2018-06-20T08:12:34.744Z,23.78
2018-06-20T08:13:34.739Z,23.84
2018-06-20T08:14:34.742Z,23.87
2018-06-20T08:15:34.749Z,23.89
2018-06-20T08:16:34.739Z,23.89
2018-06-20T08:17:34.746Z,23.92
2018-06-20T08:18:34.726Z,23.96
2018-06-20T08:19:34.763Z,23.98
2018-06-20T08:20:34.758Z,23.98
2018-06-20T08:21:34.749Z,24.05
2018-06-20T08:22:34.740Z,23.99
2018-06-20T08:23:34.712Z,24.1
2018-06-20T08:24:34.717Z,24.05
2018-06-20T08:25:34.726Z,24.06
2018-06-20T08:26:34.735Z,24.03
2018-06-20T08:27:34.741Z,24.1
2018-06-20T08:28:34.745Z,24.12
2018-06-20T08:29:34.716Z,24.23
2018-06-20T08:30:34.730Z,24.26
2018-06-20T08:31:34.734Z,24.27
2018-06-20T08:32:34.767Z,24.35
2018-06-20T08:33:34.750Z,24.4
2018-06-20T08:34:34.747Z,24.43
2018-06-20T08:35:34.758Z,24.51
2018-06-20T08:36:34.899Z,24.48
2018-06-20T08:37:34.764Z,24.54
2018-06-20T08:38:34.840Z,24.54
2018-06-20T08:39:34.789Z,24.6
2018-06-20T08:40:34.777Z,24.6
2018-06-20T08:41:35.102Z,24.61
2018-06-20T08:42:35.037Z,24.67
2018-06-20T08:43:34.776Z,24.7
2018-06-20T08:44:34.974Z,24.71
2018-06-20T08:45:34.805Z,24.72
2018-06-20T08:46:34.782Z,24.77
2018-06-20T08:47:34.809Z,24.74
2018-06-20T08:48:34.765Z,24.7
2018-06-20T08:49:34.815Z,24.63
2018-06-20T08:50:34.834Z,24.61
2018-06-20T08:51:34.979Z,24.54
2018-06-20T08:52:35.013Z,24.55
2018-06-20T08:53:34.621Z,24.55
2018-06-20T08:54:34.637Z,24.61
2018-06-20T08:55:34.809Z,24.68
2018-06-20T08:56:34.629Z,24.77
2018-06-20T08:57:35.015Z,24.89
2018-06-20T08:58:34.861Z,24.91
2018-06-20T08:59:34.673Z,24.97
2018-06-20T09:00:34.677Z,25.01
2018-06-20T09:01:34.629Z,25.05
2018-06-20T09:02:34.665Z,25.05
2018-06-20T09:03:34.704Z,25.1
2018-06-20T09:04:34.675Z,25.12
2018-06-20T09:05:34.660Z,25.19
2018-06-20T09:06:34.726Z,25.19
2018-06-20T09:07:34.636Z,25.15
2018-06-20T09:08:34.847Z,25.12
2018-06-20T09:09:34.663Z,25.12
2018-06-20T09:10:34.641Z,25.12
2018-06-20T09:11:34.684Z,25.13
2018-06-20T09:12:34.685Z,25.19
2018-06-20T09:13:34.647Z,25.26
2018-06-20T09:14:34.666Z,25.4
2018-06-20T09:15:34.664Z,25.34
2018-06-20T09:16:34.688Z,25.37
2018-06-20T09:17:34.671Z,25.47
2018-06-20T09:18:34.668Z,25.51
2018-06-20T09:19:34.653Z,25.56
2018-06-20T09:20:34.737Z,25.53
2018-06-20T09:21:34.681Z,25.54
2018-06-20T09:22:34.679Z,25.6
2018-06-20T09:23:34.688Z,25.6
2018-06-20T09:24:34.721Z,25.56
2018-06-20T09:25:34.658Z,25.58
2018-06-20T09:26:34.638Z,25.6
2018-06-20T09:27:34.665Z,25.6
2018-06-20T09:28:34.675Z,25.61
2018-06-20T09:29:34.655Z,25.65
2018-06-20T09:30:34.682Z,25.74
2018-06-20T09:31:34.725Z,25.78
2018-06-20T09:32:34.672Z,25.82
2018-06-20T09:33:34.731Z,25.91
2018-06-20T09:34:34.699Z,25.95
2018-06-20T09:35:34.711Z,25.99
2018-06-20T09:36:34.662Z,26.08
2018-06-20T09:37:34.661Z,26.1
2018-06-20T09:38:34.914Z,26.17
2018-06-20T09:39:34.849Z,26.22
2018-06-20T09:40:34.677Z,26.19
2018-06-20T09:41:34.674Z,26.17
2018-06-20T09:42:34.786Z,25.98
2018-06-20T09:43:34.710Z,25.95
2018-06-20T09:44:34.827Z,26.06
2018-06-20T09:45:34.679Z,26.1
2018-06-20T09:46:34.726Z,26.17
2018-06-20T09:47:34.726Z,26.26
2018-06-20T09:48:34.781Z,26.3
2018-06-20T09:49:34.731Z,26.36
2018-06-20T09:50:34.788Z,26.42
2018-06-20T09:51:34.774Z,26.47
2018-06-20T09:52:34.689Z,26.53
2018-06-20T09:53:34.745Z,26.53
2018-06-20T09:54:34.730Z,26.6
2018-06-20T09:55:34.770Z,26.67
2018-06-20T09:56:34.695Z,26.67
2018-06-20T09:57:34.676Z,26.68
2018-06-20T09:58:34.700Z,26.74
2018-06-20T09:59:34.671Z,26.78
2018-06-20T10:00:34.795Z,26.85
2018-06-20T10:01:34.992Z,26.85
2018-06-20T10:02:34.689Z,26.89
2018-06-20T10:03:34.775Z,26.91
2018-06-20T10:04:34.683Z,26.94
2018-06-20T10:05:34.867Z,26.91
2018-06-20T10:06:34.753Z,26.91
2018-06-20T10:07:34.702Z,26.91
2018-06-20T10:08:34.690Z,26.88
2018-06-20T10:09:34.695Z,26.91
2018-06-20T10:10:34.801Z,26.95
2018-06-20T10:11:34.739Z,27.01
2018-06-20T10:12:34.810Z,26.88
2018-06-20T10:13:34.726Z,26.81
2018-06-20T10:14:34.700Z,26.85
2018-06-20T10:15:34.689Z,26.74
2018-06-20T10:16:34.879Z,26.77
2018-06-20T10:17:34.782Z,26.82
2018-06-20T10:18:34.699Z,26.95
2018-06-20T10:19:34.707Z,26.98
2018-06-20T10:20:34.714Z,27.03
2018-06-20T10:21:34.723Z,27.1
2018-06-20T10:22:34.710Z,27.2
2018-06-20T10:23:34.807Z,27.26
2018-06-20T10:24:34.732Z,27.32
2018-06-20T10:25:34.721Z,27.34
2018-06-20T10:26:34.807Z,27.39
2018-06-20T10:27:34.774Z,27.4
2018-06-20T10:28:34.927Z,27.43
2018-06-20T10:29:34.776Z,27.44
2018-06-20T10:30:34.787Z,27.43
2018-06-20T10:31:34.716Z,27.44
2018-06-20T10:32:34.772Z,27.44
2018-06-20T10:33:34.720Z,27.47
2018-06-20T10:34:34.726Z,27.36
2018-06-20T10:35:34.702Z,27.37
2018-06-20T10:36:34.731Z,27.4
2018-06-20T10:37:34.790Z,27.43
2018-06-20T10:38:34.722Z,27.47
2018-06-20T10:39:34.736Z,27.5
2018-06-20T10:40:34.770Z,27.54
2018-06-20T10:41:34.741Z,27.56
2018-06-20T10:42:34.749Z,27.56
2018-06-20T10:43:34.743Z,27.6
2018-06-20T10:44:34.712Z,27.65
2018-06-20T10:45:34.743Z,27.65
2018-06-20T10:46:34.765Z,27.65
2018-06-20T10:47:34.712Z,27.62
2018-06-20T10:48:34.729Z,27.54
2018-06-20T10:49:34.758Z,27.57
2018-06-20T10:50:34.814Z,27.65
2018-06-20T10:51:34.988Z,27.7
2018-06-20T10:52:34.704Z,27.75
2018-06-20T10:53:34.746Z,27.79
2018-06-20T10:54:34.875Z,27.85
2018-06-20T10:55:34.885Z,27.89
2018-06-20T10:56:34.939Z,27.95
2018-06-20T10:57:34.750Z,28.02
2018-06-20T10:58:34.871Z,28.08
2018-06-20T10:59:34.762Z,28.11
2018-06-20T11:00:34.846Z,28.13
2018-06-20T11:01:34.879Z,28.18
2018-06-20T11:02:34.716Z,28.19
2018-06-20T11:03:34.714Z,28.13
2018-06-20T11:04:34.723Z,28.09
2018-06-20T11:05:34.727Z,28.05
2018-06-20T11:06:34.735Z,28.04
2018-06-20T11:07:34.978Z,27.89
2018-06-20T11:08:34.750Z,27.78
2018-06-20T11:09:34.946Z,27.78
2018-06-20T11:10:34.763Z,27.78
2018-06-20T11:11:34.935Z,27.74
2018-06-20T11:12:34.726Z,27.84
2018-06-20T11:13:34.900Z,27.84
2018-06-20T11:14:34.777Z,27.92
2018-06-20T11:15:34.756Z,27.98
2018-06-20T11:16:34.742Z,28.18
2018-06-20T11:17:34.770Z,28.23
2018-06-20T11:18:34.818Z,28.24
2018-06-20T11:19:34.907Z,28.29
2018-06-20T11:20:34.790Z,28.33
2018-06-20T11:21:34.778Z,28.37
2018-06-20T11:22:34.754Z,28.41
2018-06-20T11:23:34.794Z,28.44
2018-06-20T11:24:34.764Z,28.48
2018-06-20T11:25:35.125Z,28.51
2018-06-20T11:26:34.800Z,28.58
2018-06-20T11:27:34.778Z,28.57
2018-06-20T11:28:34.821Z,28.6
2018-06-20T11:29:34.762Z,28.6
2018-06-20T11:30:34.766Z,28.66
2018-06-20T11:31:34.748Z,28.66
2018-06-20T11:32:34.754Z,28.71
2018-06-20T11:33:34.751Z,28.73
2018-06-20T11:34:34.764Z,28.77
2018-06-20T11:35:34.763Z,28.74
2018-06-20T11:36:34.749Z,28.75
2018-06-20T11:37:34.761Z,28.77
2018-06-20T11:38:34.746Z,28.81
2018-06-20T11:39:34.969Z,28.82
2018-06-20T11:40:34.888Z,28.85
2018-06-20T11:41:34.760Z,28.89
2018-06-20T11:42:34.777Z,28.92
2018-06-20T11:43:34.766Z,28.94
2018-06-20T11:44:34.764Z,28.98
2018-06-20T11:45:34.788Z,28.99
2018-06-20T11:46:34.775Z,28.98
2018-06-20T11:47:34.771Z,28.82
2018-06-20T11:48:34.777Z,28.84
2018-06-20T11:49:34.756Z,28.92
2018-06-20T11:50:34.779Z,29.01
2018-06-20T11:51:34.784Z,29.09
2018-06-20T11:52:34.795Z,29.17
2018-06-20T11:53:34.785Z,29.25
2018-06-20T11:54:34.980Z,29.39
2018-06-20T11:55:34.752Z,29.02
2018-06-20T11:56:34.936Z,29.03
2018-06-20T11:57:34.786Z,29.12
2018-06-20T11:58:34.819Z,29.19
2018-06-20T11:59:34.781Z,29.28
2018-06-20T12:00:34.837Z,29.37
2018-06-20T12:01:34.816Z,29.41
2018-06-20T12:02:34.792Z,29.5
2018-06-20T12:03:34.831Z,29.51
2018-06-20T12:04:34.783Z,29.57
2018-06-20T12:05:34.919Z,29.4
2018-06-20T12:06:34.798Z,29.43
2018-06-20T12:07:34.784Z,29.5
2018-06-20T12:08:34.801Z,29.56
2018-06-20T12:09:34.784Z,29.57
2018-06-20T12:10:34.802Z,29.58
2018-06-20T12:11:34.920Z,29.64
2018-06-20T12:12:34.790Z,29.71
2018-06-20T12:13:35.006Z,29.75
2018-06-20T12:14:34.776Z,29.81
2018-06-20T12:15:34.815Z,29.88
2018-06-20T12:16:34.979Z,29.91
2018-06-20T12:17:34.830Z,29.98
2018-06-20T12:18:34.841Z,29.99
2018-06-20T12:19:34.924Z,30.06
2018-06-20T12:20:34.838Z,30.12
2018-06-20T12:21:35.030Z,30.16
2018-06-20T12:22:34.846Z,30.18
2018-06-20T12:23:34.812Z,30.15
2018-06-20T12:24:34.789Z,30.18
2018-06-20T12:25:34.812Z,30.15
2018-06-20T12:26:34.882Z,30.22
2018-06-20T12:27:35.031Z,30.23
2018-06-20T12:28:34.856Z,30.26
2018-06-20T12:29:34.878Z,30.33
2018-06-20T12:30:34.866Z,30.36
2018-06-20T12:31:34.826Z,30.39
2018-06-20T12:32:34.797Z,30.46
2018-06-20T12:33:34.969Z,30.5
2018-06-20T12:34:34.802Z,30.5
2018-06-20T12:35:34.812Z,30.5
2018-06-20T12:36:34.951Z,30.48
2018-06-20T12:37:34.860Z,30.5
2018-06-20T12:38:35.008Z,30.51
2018-06-20T12:39:34.888Z,30.54
2018-06-20T12:40:34.968Z,30.54
2018-06-20T12:41:34.817Z,30.58
2018-06-20T12:42:34.961Z,30.54
2018-06-20T12:43:34.967Z,30.51
2018-06-20T12:44:34.802Z,30.57
2018-06-20T12:45:34.828Z,30.58
2018-06-20T12:46:34.811Z,30.63
2018-06-20T12:47:34.830Z,30.64
2018-06-20T12:48:34.812Z,30.64
2018-06-20T12:49:34.829Z,30.65
2018-06-20T12:50:34.832Z,30.67
2018-06-20T12:51:34.817Z,30.61
2018-06-20T12:52:35.111Z,30.65
2018-06-20T12:53:34.845Z,30.68
2018-06-20T12:54:34.878Z,30.7
2018-06-20T12:55:34.829Z,30.68